Time;durP1;ratioP1;P1;durP2;ratioP2;P2;SDS_P1;SDS_P2;PMS_P1;PMS_P2;Temp;Humidity;BMP_temperature;BMP_pressure;BME280_temperature;BME280_humidity;BME280_pressure;Samples;Min_cycle;Max_cycle;Signal;HPM_P1;HPM_P2
2021/06/02 00:00:01;;;;;;;;;9.00;8.33;;;;;22.39;44.76;100683.56;5057448;28;46934;-91
2021/06/02 00:02:26;;;;;;;;;9.00;9.00;;;;;22.44;44.98;100698.53;5059157;28;45457;-92
2021/06/02 00:04:52;;;;;;;;;7.33;7.33;;;;;22.37;45.47;100688.09;5057486;28;45452;-93
2021/06/02 00:07:23;;;;;;;;;8.33;7.33;;;;;22.37;45.63;100693.44;5057702;28;45426;-91
2021/06/02 00:09:50;;;;;;;;;9.00;8.67;;;;;22.34;45.70;100686.38;5058451;28;48338;-91
2021/06/02 00:12:16;;;;;;;;;11.67;9.33;;;;;22.33;45.22;100685.53;5058472;28;45460;-93
2021/06/02 00:14:42;;;;;;;;;10.00;8.67;;;;;22.48;45.00;100718.09;5061078;28;45344;-91
2021/06/02 00:17:08;;;;;;;;;11.00;9.00;;;;;22.42;45.06;100705.75;5060408;28;45539;-91
2021/06/02 00:19:34;;;;;;;;;10.00;8.33;;;;;22.39;45.72;100705.00;5060278;28;48265;-92
2021/06/02 00:22:01;;;;;;;;;8.67;8.00;;;;;22.29;45.76;100697.25;5062844;28;45935;-91
2021/06/02 00:24:27;;;;;;;;;8.67;8.67;;;;;22.46;45.80;100724.41;5061080;28;45441;-92
2021/06/02 00:26:58;;;;;;;;;8.00;6.67;;;;;22.43;45.67;100718.22;5060953;28;45310;-91
2021/06/02 00:29:27;;;;;;;;;11.00;10.00;;;;;22.35;45.43;100704.22;5061693;28;47075;-93
2021/06/02 00:31:53;;;;;;;;;8.67;7.33;;;;;22.23;45.93;100686.72;5060211;28;45264;-93
2021/06/02 00:34:20;;;;;;;;;11.00;10.33;;;;;22.33;45.95;100709.63;5060412;28;45201;-92
2021/06/02 00:36:46;;;;;;;;;9.33;8.67;;;;;22.31;46.43;100710.59;5066010;28;45248;-92
2021/06/02 00:39:13;;;;;;;;;9.67;9.67;;;;;22.35;46.20;100719.41;5066325;28;47380;-94
2021/06/02 00:41:40;;;;;;;;;7.00;6.33;;;;;22.34;46.40;100718.53;5076647;28;45385;-91
2021/06/02 00:44:14;;;;;;;;;10.67;9.67;;;;;22.21;46.41;100701.97;5079770;28;44740;-91
2021/06/02 00:46:41;;;;;;;;;12.00;9.00;;;;;22.20;46.53;100703.78;5077808;28;44805;-93
2021/06/02 00:49:10;;;;;;;;;8.00;8.00;;;;;22.19;46.67;100704.69;5076486;28;45317;-92
2021/06/02 00:51:36;;;;;;;;;8.67;8.67;;;;;22.15;46.60;100702.16;5079106;28;45307;-91
2021/06/02 00:54:08;;;;;;;;;8.00;8.00;;;;;22.19;46.81;100720.75;5080820;28;44736;-90
2021/06/02 00:56:49;;;;;;;;;8.67;8.00;;;;;22.13;46.60;100707.56;5080696;28;45169;-91
2021/06/02 00:59:18;;;;;;;;;11.00;8.00;;;;;22.17;46.64;100708.34;5085882;28;45391;-91
2021/06/02 01:01:44;;;;;;;;;8.67;7.00;;;;;22.17;46.79;100716.38;5082632;28;44687;-91
2021/06/02 01:04:10;;;;;;;;;8.33;8.33;;;;;22.11;46.73;100709.44;5082759;28;44736;-93
2021/06/02 01:06:40;;;;;;;;;8.67;7.67;;;;;22.12;46.81;100707.63;5077251;28;45374;-93
2021/06/02 01:09:06;;;;;;;;;7.33;6.67;;;;;21.98;46.85;100676.81;5076299;28;45564;-90
2021/06/02 01:11:33;;;;;;;;;8.33;8.33;;;;;22.09;47.07;100695.22;5072120;28;45210;-92
2021/06/02 01:14:00;;;;;;;;;11.00;9.67;;;;;21.97;46.88;100673.28;5066673;28;45182;-91
2021/06/02 01:16:37;;;;;;;;;9.33;9.33;;;;;22.09;47.05;100708.59;5065524;28;44831;-90
2021/06/02 01:19:03;;;;;;;;;10.00;8.00;;;;;22.12;47.03;100707.63;5061868;28;47228;-92
2021/06/02 01:21:31;;;;;;;;;8.67;8.00;;;;;21.92;47.01;100679.69;5061553;28;45530;-91
2021/06/02 01:23:59;;;;;;;;;10.67;9.67;;;;;21.95;47.08;100690.31;5061100;28;45403;-91
2021/06/02 01:26:27;;;;;;;;;8.67;8.67;;;;;21.99;47.33;100694.63;5060715;28;45448;-91
2021/06/02 01:28:54;;;;;;;;;8.00;8.00;;;;;21.94;47.14;100689.41;5061304;28;47454;-90
2021/06/02 01:31:55;;;;;;;;;8.33;8.33;;;;;22.04;47.08;100708.75;5062802;28;45380;-91
2021/06/02 01:35:09;;;;;;;;;9.00;8.67;;;;;22.01;47.50;100700.81;5064441;28;45452;-90
2021/06/02 01:38:01;;;;;;;;;8.00;7.67;;;;;21.99;47.50;100710.69;5042385;28;45371;-91
2021/06/02 01:40:30;;;;;;;;;9.00;9.00;;;;;21.96;47.47;100706.31;5041966;28;47483;-92
2021/06/02 01:43:05;;;;;;;;;5.67;5.67;;;;;21.95;47.52;100712.59;5044017;28;45493;-90
2021/06/02 01:45:52;;;;;;;;;8.00;8.00;;;;;21.94;47.48;100709.94;5042378;28;45437;-91
2021/06/02 01:48:55;;;;;;;;;10.00;9.00;;;;;21.83;47.49;100692.41;5043892;28;45549;-90
2021/06/02 01:51:48;;;;;;;;;8.67;8.00;;;;;21.87;47.81;100703.94;5038337;28;48262;-91
2021/06/02 01:54:48;;;;;;;;;9.33;8.33;;;;;21.88;47.43;100704.78;4978630;28;46027;-90
2021/06/02 01:57:22;;;;;;;;;7.33;6.67;;;;;21.88;47.92;100710.13;4983249;28;45435;-92
2021/06/02 02:00:10;;;;;;;;;9.67;8.33;;;;;21.72;47.54;100684.69;4978541;28;45491;-91
2021/06/02 02:03:07;;;;;;;;;9.33;8.00;;;;;21.83;47.87;100700.44;4979643;28;46382;-92
2021/06/02 02:06:13;;;;;;;;;9.00;8.00;;;;;21.65;47.95;100680.47;4982217;28;45417;-91
2021/06/02 02:08:54;;;;;;;;;9.67;9.67;;;;;21.80;48.14;100711.22;4980185;28;45452;-90
2021/06/02 02:11:29;;;;;;;;;10.33;9.00;;;;;21.68;48.08;100679.50;4980372;28;45372;-91
2021/06/02 02:14:01;;;;;;;;;9.33;8.00;;;;;21.74;48.12;100690.88;4979630;28;47330;-90
2021/06/02 02:16:34;;;;;;;;;8.67;8.33;;;;;21.60;48.18;100671.69;4961787;28;45499;-90
2021/06/02 02:19:24;;;;;;;;;9.33;8.00;;;;;21.73;48.00;100697.16;4962992;28;45404;-90
2021/06/02 02:22:28;;;;;;;;;8.67;8.67;;;;;21.63;47.95;100699.25;4978301;28;45562;-91
2021/06/02 02:25:03;;;;;;;;;7.33;7.33;;;;;21.64;47.81;100697.41;4963629;28;47300;-91
2021/06/02 02:28:06;;;;;;;;;9.00;8.00;;;;;21.69;48.03;100708.88;4985654;28;45517;-90
2021/06/02 02:30:51;;;;;;;;;9.00;8.00;;;;;21.67;48.12;100697.34;5011932;28;44767;-90
2021/06/02 02:33:24;;;;;;;;;7.67;7.67;;;;;21.67;48.31;100712.50;5080758;28;44752;-91
2021/06/02 02:36:05;;;;;;;;;9.00;8.67;;;;;21.51;48.19;100695.09;5070846;28;47400;-90
2021/06/02 02:38:30;;;;;;;;;10.67;9.00;;;;;21.65;48.01;100715.22;5073711;28;45272;-90
2021/06/02 02:41:35;;;;;;;;;9.67;9.67;;;;;21.64;48.04;100709.00;5090829;28;44819;-91
2021/06/02 02:44:20;;;;;;;;;9.67;9.67;;;;;21.66;48.24;100716.13;5060921;28;45263;-91
2021/06/02 02:47:10;;;;;;;;;9.00;8.67;;;;;21.56;47.93;100700.31;5058093;28;48351;-91
2021/06/02 02:49:41;;;;;;;;;9.00;8.00;;;;;21.62;47.96;100710.84;5058675;28;46023;-90
2021/06/02 02:52:32;;;;;;;;;;;;;;;;;;;;;
2021/06/02 02:55:11;;;;;;;;;9.67;9.00;;;;;21.55;47.93;100709.28;5058078;28;65626;-92
2021/06/02 02:58:02;;;;;;;;;9.00;9.00;;;;;21.59;48.43;100710.94;5057179;28;47027;-91
2021/06/02 03:01:00;;;;;;;;;10.67;9.00;;;;;21.52;48.13;100693.31;5074494;28;45695;-91
2021/06/02 03:03:30;;;;;;;;;7.67;7.33;;;;;21.58;48.42;100702.94;5055545;28;45281;-91
2021/06/02 03:06:03;;;;;;;;;9.00;9.00;;;;;21.46;48.13;100688.16;5075395;28;45450;-91
2021/06/02 03:08:53;;;;;;;;;9.00;8.00;;;;;21.54;48.55;100707.53;5075445;28;47360;-91
2021/06/02 03:11:31;;;;;;;;;7.33;7.33;;;;;21.54;48.55;100707.53;5057759;28;45316;-91
2021/06/02 03:14:25;;;;;;;;;10.67;9.00;;;;;21.41;48.35;100701.63;5061858;28;45248;-90
2021/06/02 03:17:06;;;;;;;;;9.67;9.00;;;;;21.46;48.16;100710.41;5046530;28;45360;-91
2021/06/02 03:19:59;;;;;;;;;8.00;8.00;;;;;21.49;48.51;100729.03;5047076;28;46963;-92
2021/06/02 03:22:42;;;;;;;;;8.33;8.33;;;;;21.42;48.42;100719.44;5043796;28;45368;-91
2021/06/02 03:25:30;;;;;;;;;10.67;8.33;;;;;21.45;48.44;100714.00;5042397;28;45464;-90
2021/06/02 03:27:59;;;;;;;;;9.00;9.00;;;;;21.48;48.51;100718.38;5058731;28;45609;-91
2021/06/02 03:30:37;;;;;;;;;11.00;9.67;;;;;21.39;48.88;100699.03;5040654;28;47495;-89
2021/06/02 03:33:21;;;;;;;;;10.67;8.67;;;;;21.37;49.23;100695.50;5038796;28;45316;-90
2021/06/02 03:36:00;;;;;;;;;9.00;8.00;;;;;21.31;48.77;100687.66;5039073;28;45355;-89
2021/06/02 03:38:41;;;;;;;;;10.33;9.33;;;;;21.46;49.21;100715.78;5039224;28;45620;-91
2021/06/02 03:41:37;;;;;;;;;9.00;7.33;;;;;21.36;49.03;100699.09;5038401;28;47465;-90
2021/06/02 03:44:17;;;;;;;;;8.67;8.00;;;;;21.27;49.02;100694.03;4998692;28;45849;-90
2021/06/02 03:47:18;;;;;;;;;8.00;8.00;;;;;21.29;48.95;100690.41;4999320;28;45467;-91
2021/06/02 03:49:49;;;;;;;;;10.00;10.00;;;;;21.40;49.18;100711.47;4999270;28;45631;-91
2021/06/02 03:52:56;;;;;;;;;8.67;8.33;;;;;21.32;49.22;100699.25;4998749;28;46531;-89
2021/06/02 03:55:30;;;;;;;;;9.33;7.33;;;;;21.29;49.36;100689.50;4976403;28;45984;-89
2021/06/02 03:58:06;;;;;;;;;10.00;10.00;;;;;21.33;49.15;100715.22;4976138;28;45285;-90
2021/06/02 04:00:43;;;;;;;;;9.00;7.67;;;;;21.31;49.48;100706.38;4976200;28;45535;-91
2021/06/02 04:03:20;;;;;;;;;8.00;8.00;;;;;21.25;49.15;100703.88;4975581;28;47162;-90
2021/06/02 04:05:53;;;;;;;;;11.33;11.33;;;;;21.24;49.59;100694.09;4975824;28;45467;-91
2021/06/02 04:08:24;;;;;;;;;10.00;10.00;;;;;21.26;49.80;100698.47;4976203;28;46507;-90
2021/06/02 04:11:10;;;;;;;;;9.00;8.00;;;;;21.32;49.88;100718.81;4978469;28;45639;-90
2021/06/02 04:13:57;;;;;;;;;9.00;8.67;;;;;21.31;49.55;100717.06;4979611;28;46463;-90
2021/06/02 04:16:28;;;;;;;;;9.00;8.33;;;;;21.30;49.71;100717.97;4980665;28;45480;-91
2021/06/02 04:18:55;;;;;;;;;9.00;9.00;;;;;21.19;49.97;100702.25;4975607;28;45584;-89
2021/06/02 04:21:23;;;;;;;;;10.33;9.00;;;;;21.31;50.05;100726.88;4998119;28;45286;-91
2021/06/02 04:23:50;;;;;;;;;12.00;9.00;;;;;21.12;51.01;100690.84;4998834;28;47167;-90
2021/06/02 04:26:15;;;;;;;;;10.00;8.00;;;;;21.11;52.63;100699.78;4998915;28;45554;-91
2021/06/02 04:28:42;;;;;;;;;12.00;10.67;;;;;21.16;52.40;100705.91;4999432;28;45459;-90
2021/06/02 04:31:13;;;;;;;;;12.33;10.33;;;;;21.26;53.06;100727.00;5017657;28;45408;-92
2021/06/02 04:33:40;;;;;;;;;12.67;12.33;;;;;21.25;53.14;100722.59;5058823;28;46777;-92
2021/06/02 04:36:08;;;;;;;;;14.00;12.33;;;;;21.18;52.88;100711.19;5059637;28;45483;-92
2021/06/02 04:38:34;;;;;;;;;10.00;9.00;;;;;21.05;53.24;100705.28;5060968;28;45436;-90
2021/06/02 04:41:05;;;;;;;;;12.00;10.00;;;;;21.21;53.53;100726.28;5078292;28;45378;-91
2021/06/02 04:43:33;;;;;;;;;13.00;10.33;;;;;21.02;53.37;100697.38;5075290;28;47144;-91
2021/06/02 04:46:01;;;;;;;;;13.67;10.33;;;;;20.98;53.28;100693.91;5080691;28;44835;-92
2021/06/02 04:48:30;;;;;;;;;13.33;10.33;;;;;21.06;53.70;100709.72;5081067;28;45453;-91
2021/06/02 04:51:10;;;;;;;;;13.33;11.00;;;;;21.13;53.20;100727.34;5080092;28;44800;-92
2021/06/02 04:54:00;;;;;;;;;16.00;12.33;;;;;21.13;52.13;100739.84;5076689;28;47175;-92
2021/06/02 04:56:45;;;;;;;;;15.33;12.00;;;;;21.11;53.15;100736.34;5075167;28;45469;-91
2021/06/02 04:59:56;;;;;;;;;10.33;9.00;;;;;21.04;53.91;100723.16;5075967;28;45481;-89
2021/06/02 05:02:28;;;;;;;;;11.67;11.00;;;;;21.08;52.33;100731.06;5042998;28;45297;-93
2021/06/02 05:05:02;;;;;;;;;10.00;9.00;;;;;21.04;52.86;100733.84;5040386;28;48373;-91
2021/06/02 05:07:39;;;;;;;;;9.67;9.67;;;;;21.03;52.51;100744.53;5040468;28;45914;-91
2021/06/02 05:10:46;;;;;;;;;9.00;9.00;;;;;21.02;53.30;100740.13;5041569;28;45402;-92
2021/06/02 05:13:33;;;;;;;;;11.67;11.00;;;;;21.02;53.56;100737.47;5014286;28;45509;-86
2021/06/02 05:16:33;;;;;;;;;12.33;10.00;;;;;21.01;52.15;100746.38;4997844;28;46455;-87
2021/06/02 05:22:38;;;;;;;;;10.67;10.00;;;;;20.93;52.47;100755.47;4998776;28;45425;-86
2021/06/02 05:25:33;;;;;;;;;10.00;10.00;;;;;20.87;52.87;100752.94;4999343;28;45284;-87
2021/06/02 05:28:36;;;;;;;;;12.33;11.33;;;;;20.85;52.96;100762.78;4999964;28;46442;-86
2021/06/02 05:31:04;;;;;;;;;10.00;9.00;;;;;20.80;53.04;100759.34;5000269;28;45427;-86
2021/06/02 05:33:50;;;;;;;;;9.00;9.00;;;;;20.77;52.82;100764.78;4999872;28;45684;-86
2021/06/02 05:36:59;;;;;;;;;10.00;10.00;;;;;20.72;53.04;100764.88;4997914;28;45357;-86
2021/06/02 05:39:59;;;;;;;;;11.33;11.00;;;;;20.56;53.24;100746.56;4993460;28;48451;-85
2021/06/02 05:42:45;;;;;;;;;13.00;11.33;;;;;20.63;53.64;100760.63;5019428;28;45301;-84
2021/06/02 05:45:41;;;;;;;;;14.00;12.33;;;;;20.63;54.24;100751.75;5021284;28;45380;-85
2021/06/02 05:48:06;;;;;;;;;12.67;12.67;;;;;20.62;53.45;100774.94;5019255;28;45503;-88
2021/06/02 05:50:53;;;;;;;;;15.67;15.33;;;;;20.59;53.80;100773.19;5045927;28;45480;-85
2021/06/02 05:53:37;;;;;;;;;11.67;9.33;;;;;20.57;53.75;100780.38;5060335;28;45287;-89
2021/06/02 05:56:20;;;;;;;;;12.00;10.33;;;;;20.55;53.84;100776.84;5060009;28;45389;-87
2021/06/02 05:59:05;;;;;;;;;14.00;13.67;;;;;20.52;53.97;100766.22;5061011;28;45378;-86
2021/06/02 06:01:49;;;;;;;;;15.67;14.67;;;;;20.53;54.52;100773.34;5059045;28;46575;-86
2021/06/02 06:05:00;;;;;;;;;12.67;12.67;;;;;20.54;54.32;100780.44;5058629;28;45267;-86
2021/06/02 06:07:54;;;;;;;;;16.67;14.67;;;;;20.54;54.39;100779.56;5059749;28;45675;-94
2021/06/02 06:10:58;;;;;;;;;16.00;16.00;;;;;20.53;55.15;100776.03;5063496;28;45291;-92
2021/06/02 06:13:48;;;;;;;;;15.00;14.33;;;;;20.53;54.81;100788.47;5067726;28;46562;-91
2021/06/02 06:16:43;;;;;;;;;17.00;15.00;;;;;20.51;54.99;100780.53;5065463;28;45324;-92
2021/06/02 06:19:25;;;;;;;;;13.67;13.67;;;;;20.50;54.90;100777.84;5083728;28;45369;-91
2021/06/02 06:22:12;;;;;;;;;18.00;15.00;;;;;20.45;55.21;100784.19;5060503;28;45283;-92
2021/06/02 06:24:59;;;;;;;;;13.67;13.67;;;;;20.31;55.52;100764.94;5060260;28;45537;-91
2021/06/02 06:27:34;;;;;;;;;20.33;17.33;;;;;20.47;55.16;100795.72;5061439;28;45229;-93
2021/06/02 06:30:12;;;;;;;;;19.00;16.00;;;;;20.42;55.86;100767.38;5061789;28;45303;-92
2021/06/02 06:32:40;;;;;;;;;16.00;14.33;;;;;20.41;55.96;100769.16;5060072;28;45516;-91
2021/06/02 06:35:08;;;;;;;;;19.00;17.00;;;;;20.43;56.06;100772.66;5059164;28;45490;-92
2021/06/02 06:37:39;;;;;;;;;17.33;16.33;;;;;20.54;55.83;100796.44;5074867;28;45345;-91
2021/06/02 06:40:14;;;;;;;;;16.33;14.00;;;;;20.42;56.33;100772.72;5059319;28;45398;-92
2021/06/02 06:42:45;;;;;;;;;16.00;15.00;;;;;20.45;55.98;100769.97;5057945;28;45453;-92
2021/06/02 06:45:16;;;;;;;;;16.00;16.00;;;;;20.42;56.37;100754.91;5058312;28;47303;-92
2021/06/02 06:47:45;;;;;;;;;17.33;14.33;;;;;20.51;56.19;100783.19;5058068;28;45402;-91
2021/06/02 06:50:12;;;;;;;;;17.00;16.67;;;;;20.57;55.80;100779.47;5057723;28;45386;-92
2021/06/02 06:52:42;;;;;;;;;19.00;17.33;;;;;20.51;56.26;100776.97;5058078;28;45688;-92
2021/06/02 06:55:09;;;;;;;;;20.00;14.67;;;;;20.57;56.63;100780.38;5057575;28;47360;-91
2021/06/02 06:57:35;;;;;;;;;15.67;15.67;;;;;20.54;56.34;100774.22;5059015;28;45440;-90
2021/06/02 07:00:04;;;;;;;;;17.00;17.00;;;;;20.68;56.34;100792.59;5058332;28;45506;-92
2021/06/02 07:02:31;;;;;;;;;19.33;16.00;;;;;20.62;56.34;100777.59;5062072;28;45429;-93
2021/06/02 07:04:58;;;;;;;;;21.33;18.00;;;;;20.71;56.37;100792.50;5059423;28;46476;-92
2021/06/02 07:07:25;;;;;;;;;17.00;15.33;;;;;20.71;56.81;100793.38;5074703;28;45302;-94
2021/06/02 07:09:51;;;;;;;;;17.67;17.00;;;;;20.62;56.46;100777.59;5057255;28;45545;-90
2021/06/02 07:12:21;;;;;;;;;16.67;15.00;;;;;20.76;56.82;100789.72;5057789;28;45468;-90
2021/06/02 07:14:51;;;;;;;;;17.67;17.00;;;;;20.71;56.97;100782.69;5067395;28;45210;-90
2021/06/02 07:17:21;;;;;;;;;13.33;12.67;;;;;20.65;56.97;100777.50;5077650;28;44856;-90
2021/06/02 07:19:57;;;;;;;;;16.67;14.67;;;;;20.72;57.37;100788.94;5078688;28;44739;-90
2021/06/02 07:22:24;;;;;;;;;17.75;16.50;;;;;20.74;57.83;100791.56;5077339;28;44819;-89
2021/06/02 07:24:58;;;;;;;;;13.00;13.00;;;;;20.78;57.15;100796.78;5074220;28;48645;-90
2021/06/02 07:27:24;;;;;;;;;18.67;17.33;;;;;20.84;57.54;100801.09;5083737;28;45321;-93
2021/06/02 07:29:49;;;;;;;;;17.33;15.00;;;;;20.90;57.32;100802.72;5062075;28;45208;-92
2021/06/02 07:32:15;;;;;;;;;17.33;16.33;;;;;20.91;57.50;100794.69;5061726;28;45396;-92
2021/06/02 07:34:41;;;;;;;;;19.00;17.67;;;;;20.91;57.55;100792.03;5059000;28;47497;-92
2021/06/02 07:37:06;;;;;;;;;19.00;17.00;;;;;20.95;57.40;100792.81;5075452;28;45819;-91
2021/06/02 07:39:32;;;;;;;;;15.67;15.67;;;;;21.11;57.46;100812.03;5057658;28;45424;-93
2021/06/02 07:41:57;;;;;;;;;20.67;17.67;;;;;21.02;57.42;100801.59;5057591;28;45570;-91
2021/06/02 07:44:22;;;;;;;;;17.67;17.67;;;;;21.17;57.32;100816.38;5057376;28;47956;-93
2021/06/02 07:46:48;;;;;;;;;15.33;14.67;;;;;21.21;57.67;100817.16;5056992;28;45414;-90
2021/06/02 07:49:14;;;;;;;;;18.00;15.50;;;;;21.13;57.74;100804.84;5058992;28;45378;-93
2021/06/02 07:51:39;;;;;;;;;16.33;14.67;;;;;21.15;57.68;100797.66;5057335;28;45245;-92
2021/06/02 07:54:06;;;;;;;;;16.67;13.67;;;;;21.34;57.78;100826.59;5059425;28;46282;-91
2021/06/02 07:56:32;;;;;;;;;15.00;15.00;;;;;21.26;57.96;100800.06;5057480;28;45671;-92
2021/06/02 07:58:57;;;;;;;;;18.00;17.67;;;;;21.39;57.72;100808.66;5059503;28;45275;-93
2021/06/02 08:01:23;;;;;;;;;15.00;13.33;;;;;21.33;57.74;100794.56;5060015;28;45300;-92
2021/06/02 08:03:48;;;;;;;;;17.00;15.00;;;;;21.44;57.86;100799.63;5058710;28;47241;-90
2021/06/02 08:06:14;;;;;;;;;16.00;14.33;;;;;21.51;57.99;100804.75;5061596;28;45235;-91
2021/06/02 08:08:39;;;;;;;;;19.00;15.00;;;;;21.64;57.85;100805.28;5067367;28;45290;-92
2021/06/02 08:11:05;;;;;;;;;19.33;16.00;;;;;21.78;57.50;100812.06;5060804;28;45557;-91
2021/06/02 08:13:31;;;;;;;;;16.67;13.33;;;;;21.82;57.14;100803.03;5061792;28;45477;-91
2021/06/02 08:15:57;;;;;;;;;17.33;14.67;;;;;22.06;57.75;100810.41;5061308;28;45433;-91
2021/06/02 08:18:22;;;;;;;;;16.67;14.00;;;;;22.28;57.20;100813.31;5064413;28;45380;-90
2021/06/02 08:20:48;;;;;;;;;13.67;12.00;;;;;22.63;57.28;100831.88;5069184;28;45405;-91
2021/06/02 08:23:13;;;;;;;;;17.00;15.67;;;;;22.83;56.69;100810.75;5071576;28;47266;-90
2021/06/02 08:25:39;;;;;;;;;15.00;15.00;;;;;23.16;56.30;100823.94;5075808;28;44783;-91
2021/06/02 08:28:04;;;;;;;;;15.00;14.33;;;;;23.50;56.58;100838.03;5090599;28;45704;-90
2021/06/02 08:30:30;;;;;;;;;17.67;14.33;;;;;23.78;55.42;100830.78;5089279;28;45347;-89
2021/06/02 08:32:56;;;;;;;;;18.33;16.00;;;;;24.06;54.57;100846.75;5064866;28;47994;-90
2021/06/02 08:35:22;;;;;;;;;16.33;14.67;;;;;24.25;54.16;100829.97;5068348;28;45227;-93
2021/06/02 08:37:47;;;;;;;;;13.67;13.67;;;;;24.51;53.79;100814.59;5084471;28;44656;-91
2021/06/02 08:40:15;;;;;;;;;19.00;15.00;;;;;25.01;53.63;100827.88;5070046;28;45323;-93
2021/06/02 08:42:46;;;;;;;;;14.33;13.33;;;;;25.69;52.75;100823.22;5071587;28;47148;-91
2021/06/02 08:45:13;;;;;;;;;15.00;15.00;;;;;26.51;50.92;100849.16;5066280;28;45232;-93
2021/06/02 08:47:41;;;;;;;;;18.33;16.67;;;;;27.25;50.13;100835.66;5064393;28;45340;-90
2021/06/02 08:50:10;;;;;;;;;16.67;16.00;;;;;27.69;48.13;100834.25;5066705;28;45344;-92
2021/06/02 08:52:39;;;;;;;;;16.67;15.00;;;;;27.76;48.09;100851.06;5065374;28;48511;-91
2021/06/02 08:55:08;;;;;;;;;15.33;13.67;;;;;27.74;47.58;100842.13;5064716;28;45224;-90
2021/06/02 08:57:42;;;;;;;;;15.67;14.67;;;;;27.91;47.43;100849.34;5065452;28;45486;-91
2021/06/02 09:00:13;;;;;;;;;14.33;14.33;;;;;28.02;47.30;100834.38;5070611;28;44768;-91
2021/06/02 09:02:44;;;;;;;;;14.33;14.00;;;;;28.27;47.03;100849.22;5069425;28;45315;-91
2021/06/02 09:05:11;;;;;;;;;16.67;14.33;;;;;28.43;46.20;100849.25;5068494;28;45528;-93
2021/06/02 09:07:39;;;;;;;;;13.00;13.00;;;;;28.53;46.14;100838.81;5088099;28;45267;-88
2021/06/02 09:10:10;;;;;;;;;14.00;13.00;;;;;28.71;45.91;100844.97;5071020;28;45450;-91
2021/06/02 09:12:38;;;;;;;;;15.00;13.67;;;;;29.03;45.42;100846.75;5080447;28;48429;-91
2021/06/02 09:15:19;;;;;;;;;14.67;13.67;;;;;29.54;44.61;100836.56;5064187;28;45279;-92
2021/06/02 09:17:57;;;;;;;;;14.33;13.67;;;;;30.18;44.01;100840.78;5062075;28;45359;-93
2021/06/02 09:20:42;;;;;;;;;14.00;14.00;;;;;30.93;42.61;100848.63;5063659;28;45480;-91
2021/06/02 09:23:31;;;;;;;;;11.00;10.33;;;;;31.47;41.61;100846.84;5068201;28;46414;-89
2021/06/02 09:26:20;;;;;;;;;14.00;12.33;;;;;31.85;41.72;100858.69;5073547;28;45551;-88
2021/06/02 09:29:11;;;;;;;;;13.00;13.00;;;;;32.11;40.13;100838.78;5073888;28;45355;-89
2021/06/02 09:31:42;;;;;;;;;15.00;12.00;;;;;32.40;40.66;100849.34;5068378;28;45652;-91
2021/06/02 09:34:17;;;;;;;;;15.00;13.67;;;;;33.23;39.94;100861.44;5061612;28;47378;-91
2021/06/02 09:36:45;;;;;;;;;15.67;12.67;;;;;34.15;38.61;100854.22;5060848;28;45208;-91
2021/06/02 09:39:13;;;;;;;;;16.00;15.67;;;;;35.27;36.35;100858.75;5060795;28;45320;-92
2021/06/02 09:41:43;;;;;;;;;14.33;14.33;;;;;36.39;34.54;100850.84;5061147;28;45441;-90
2021/06/02 09:44:29;;;;;;;;;14.00;14.00;;;;;37.52;32.98;100863.25;5060546;28;46522;-91
2021/06/02 09:47:06;;;;;;;;;15.67;14.00;;;;;37.89;31.97;100863.44;5060898;28;45338;-90
2021/06/02 09:49:54;;;;;;;;;14.00;14.00;;;;;37.61;32.17;100866.13;5060861;28;45398;-93
2021/06/02 09:52:38;;;;;;;;;13.00;13.00;;;;;36.88;31.71;100861.00;5060978;28;45389;-91
2021/06/02 09:55:13;;;;;;;;;11.67;11.33;;;;;35.67;31.77;100848.94;5060373;28;45409;-91
2021/06/02 09:57:39;;;;;;;;;15.33;14.33;;;;;34.72;33.02;100866.03;5059685;28;45462;-91
2021/06/02 10:00:08;;;;;;;;;12.00;12.00;;;;;34.36;33.73;100858.06;5061790;28;45452;-90
2021/06/02 10:02:33;;;;;;;;;13.67;12.00;;;;;34.99;33.57;100846.47;5077674;28;45346;-90
2021/06/02 10:05:07;;;;;;;;;23.67;21.67;;;;;36.18;32.08;100838.09;5059085;28;46989;-90
2021/06/02 10:07:42;;;;;;;;;17.00;15.67;;;;;36.41;31.64;100842.47;5061031;28;45176;-90
2021/06/02 10:10:09;;;;;;;;;14.33;14.33;;;;;36.78;31.53;100860.97;5058856;28;45280;-88
2021/06/02 10:12:34;;;;;;;;;15.00;14.67;;;;;36.49;31.59;100842.63;5075783;28;45527;-90
2021/06/02 10:15:00;;;;;;;;;16.00;13.33;;;;;36.19;32.45;100856.25;5060997;28;46296;-90
2021/06/02 10:17:27;;;;;;;;;15.33;14.33;;;;;36.10;33.22;100860.69;5059739;28;45276;-89
2021/06/02 10:19:53;;;;;;;;;13.67;11.67;;;;;36.17;32.79;100855.53;5076506;28;45411;-89
2021/06/02 10:22:24;;;;;;;;;16.33;15.00;;;;;36.37;32.28;100863.78;5059551;28;45530;-92
2021/06/02 10:24:51;;;;;;;;;12.33;12.33;;;;;36.76;32.06;100868.47;5077304;28;46769;-90
2021/06/02 10:27:19;;;;;;;;;15.67;14.33;;;;;37.41;30.98;100869.78;5082468;28;45457;-89
2021/06/02 10:29:46;;;;;;;;;16.00;13.00;;;;;38.27;30.33;100870.75;5065417;28;45483;-89
2021/06/02 10:32:13;;;;;;;;;12.67;12.00;;;;;38.36;28.79;100878.09;5071621;28;45165;-90
2021/06/02 10:34:38;;;;;;;;;12.33;12.00;;;;;38.48;28.14;100866.91;5074543;28;46356;-89
2021/06/02 10:37:05;;;;;;;;;14.67;13.67;;;;;38.90;27.86;100882.78;5073945;28;45282;-91
2021/06/02 10:39:33;;;;;;;;;14.25;14.25;;;;;39.14;28.26;100878.53;5076752;28;45419;-92
2021/06/02 10:42:05;;;;;;;;;15.33;15.00;;;;;39.00;28.41;100892.84;5074029;28;45350;-91
2021/06/02 10:44:36;;;;;;;;;13.33;13.33;;;;;38.49;28.30;100876.84;5082330;28;47994;-89
2021/06/02 10:47:03;;;;;;;;;12.00;10.00;;;;;37.93;29.55;100874.97;5082431;28;45591;-90
2021/06/02 10:49:34;;;;;;;;;14.00;12.33;;;;;37.81;30.38;100871.50;5064942;28;45481;-92
2021/06/02 10:52:00;;;;;;;;;15.00;14.67;;;;;37.95;29.79;100872.94;5065685;28;45342;-92
2021/06/02 10:54:36;;;;;;;;;12.33;12.33;;;;;38.34;29.25;100882.88;5080998;28;47140;-92
2021/06/02 10:57:01;;;;;;;;;10.67;8.33;;;;;38.79;27.88;100907.75;5066307;28;45343;-91
2021/06/02 10:59:28;;;;;;;;;14.67;10.33;;;;;39.10;27.34;100903.72;5071397;28;45470;-95
2021/06/02 11:02:08;;;;;;;;;10.67;10.67;;;;;40.47;25.96;100905.09;5078249;28;44637;-92
2021/06/02 11:04:36;;;;;;;;;10.33;10.33;;;;;40.79;25.03;100890.72;5075657;28;45381;-90
2021/06/02 11:07:22;;;;;;;;;12.33;12.00;;;;;39.55;26.29;100895.50;5075781;28;45246;-93
2021/06/02 11:09:52;;;;;;;;;12.67;11.00;;;;;38.22;27.20;100905.00;5078329;28;44709;-91
2021/06/02 11:12:17;;;;;;;;;10.33;10.33;;;;;37.04;27.45;100896.00;5096100;28;44888;-90
2021/06/02 11:14:43;;;;;;;;;10.33;10.33;;;;;36.01;28.80;100894.31;5075285;28;45354;-92
2021/06/02 11:17:11;;;;;;;;;11.00;11.00;;;;;35.31;29.48;100898.47;5094248;28;45634;-91
2021/06/02 11:19:41;;;;;;;;;12.00;12.00;;;;;34.52;30.31;100896.72;5066595;28;44765;-91
2021/06/02 11:22:28;;;;;;;;;14.00;13.67;;;;;34.01;31.36;100900.84;5060945;28;45378;-90
2021/06/02 11:24:55;;;;;;;;;14.67;11.67;;;;;33.41;32.28;100880.91;5059657;28;46175;-91
2021/06/02 11:27:21;;;;;;;;;14.00;12.67;;;;;33.19;31.98;100898.06;5060263;28;45389;-91
2021/06/02 11:29:46;;;;;;;;;12.33;11.33;;;;;32.80;33.17;100893.63;5079937;28;45430;-91
2021/06/02 11:32:20;;;;;;;;;13.00;13.00;;;;;32.41;33.54;100878.28;5069956;28;45181;-89
2021/06/02 11:34:51;;;;;;;;;18.00;14.33;;;;;32.12;34.31;100890.31;5082560;28;47170;-90
2021/06/02 11:37:20;;;;;;;;;12.67;12.00;;;;;31.84;34.73;100900.41;5076949;28;45469;-92
2021/06/02 11:39:50;;;;;;;;;14.00;12.67;;;;;31.71;34.89;100891.41;5060383;28;45434;-90
2021/06/02 11:42:42;;;;;;;;;18.00;17.33;;;;;31.66;35.23;100914.31;5058110;28;45489;-89
2021/06/02 11:45:10;;;;;;;;;13.00;13.00;;;;;31.51;35.47;100923.53;5058857;28;46559;-90
2021/06/02 11:47:39;;;;;;;;;14.00;13.00;;;;;31.30;35.57;100895.00;5058549;28;45442;-90
2021/06/02 11:50:08;;;;;;;;;13.00;11.00;;;;;31.27;35.70;100908.78;5059000;28;45475;-91
2021/06/02 11:52:34;;;;;;;;;14.67;14.00;;;;;31.02;35.83;100880.59;5059032;28;45459;-92
2021/06/02 11:55:03;;;;;;;;;13.33;13.33;;;;;31.07;36.27;100896.56;5058615;28;45287;-91